createdAt,value
2022-11-19T00:00:46.053Z,12.30
2022-11-19T00:05:50.348Z,13.57
2022-11-19T00:10:53.312Z,17.67
2022-11-19T00:15:56.447Z,14.50
2022-11-19T00:21:07.460Z,12.43
2022-11-19T00:26:16.022Z,10.67
2022-11-19T00:31:19.425Z,9.93
2022-11-19T00:36:23.181Z,12.63
2022-11-19T00:41:26.115Z,12.57
2022-11-19T00:46:31.159Z,14.80
2022-11-19T00:51:35.283Z,14.50
2022-11-19T00:56:38.285Z,15.00
2022-11-19T01:01:41.396Z,13.33
2022-11-19T01:06:44.140Z,11.10
2022-11-19T01:11:46.963Z,9.40
2022-11-19T01:16:50.108Z,9.90
2022-11-19T01:21:53.288Z,7.77
2022-11-19T01:26:56.091Z,8.20
2022-11-19T01:31:59.422Z,6.83
2022-11-19T01:37:02.475Z,5.50
2022-11-19T01:42:05.634Z,7.27
2022-11-19T01:47:08.575Z,5.40
2022-11-19T01:52:11.450Z,8.00
2022-11-19T01:57:16.184Z,6.63
2022-11-19T02:02:20.110Z,7.03
2022-11-19T02:07:29.396Z,6.00
2022-11-19T02:12:44.772Z,6.90
2022-11-19T02:18:13.594Z,7.53
2022-11-19T02:23:35.403Z,8.43
2022-11-19T02:28:51.645Z,7.63
2022-11-19T02:33:56.341Z,8.93
2022-11-19T02:39:17.724Z,6.83
2022-11-19T02:44:49.908Z,10.13
2022-11-19T02:49:56.634Z,8.20
2022-11-19T02:54:59.654Z,9.30
2022-11-19T03:00:24.873Z,9.83
2022-11-19T03:05:32.230Z,11.00
2022-11-19T03:11:20.775Z,13.87
2022-11-19T03:16:43.182Z,15.60
2022-11-19T03:22:00.108Z,15.40
2022-11-19T03:27:10.296Z,15.03
2022-11-19T03:32:26.018Z,15.70
2022-11-19T03:37:31.089Z,13.07
2022-11-19T03:42:34.809Z,13.27
2022-11-19T03:47:39.189Z,11.13
2022-11-19T03:52:42.885Z,15.23
2022-11-19T03:57:46.077Z,12.73
2022-11-19T04:02:49.069Z,12.77
2022-11-19T04:07:52.082Z,12.03
2022-11-19T04:12:55.457Z,12.33
2022-11-19T04:17:58.532Z,11.90
2022-11-19T04:23:01.910Z,12.43
2022-11-19T04:28:05.040Z,13.83
2022-11-19T04:33:08.478Z,12.80
2022-11-19T04:38:11.652Z,14.23
2022-11-19T04:43:14.642Z,14.00
2022-11-19T04:48:17.468Z,15.93
2022-11-19T04:53:20.527Z,16.97
2022-11-19T04:58:23.551Z,16.07
2022-11-19T05:03:26.674Z,14.73
2022-11-19T05:08:29.699Z,14.77
2022-11-19T05:13:33.045Z,15.57
2022-11-19T05:18:36.103Z,13.83
2022-11-19T05:23:39.253Z,14.33
2022-11-19T05:28:42.166Z,12.30
2022-11-19T05:33:45.319Z,14.10
2022-11-19T05:38:48.448Z,15.50
2022-11-19T05:43:51.638Z,15.20
2022-11-19T05:48:54.587Z,16.63
2022-11-19T05:53:57.606Z,26.03
2022-11-19T05:59:00.779Z,20.93
2022-11-19T06:04:03.743Z,21.50
2022-11-19T06:09:06.900Z,23.67
2022-11-19T06:14:09.981Z,26.03
2022-11-19T06:19:13.071Z,23.10
2022-11-19T06:24:16.278Z,26.13
2022-11-19T06:29:20.100Z,29.17
2022-11-19T06:34:26.162Z,25.00
2022-11-19T06:39:29.057Z,23.43
2022-11-19T06:44:31.922Z,22.10
2022-11-19T06:49:34.808Z,21.00
2022-11-19T06:54:41.766Z,24.80
2022-11-19T06:59:46.352Z,22.17
2022-11-19T07:04:49.694Z,22.97
2022-11-19T07:09:52.722Z,24.60
2022-11-19T07:15:01.121Z,27.40
2022-11-19T07:20:08.065Z,24.47
2022-11-19T07:25:14.430Z,24.40
2022-11-19T07:30:18.035Z,26.80
2022-11-19T07:35:21.346Z,25.77
2022-11-19T07:40:24.254Z,26.93
2022-11-19T07:45:27.551Z,23.77
2022-11-19T07:50:30.605Z,27.73
2022-11-19T07:55:33.771Z,24.37
2022-11-19T08:00:37.407Z,28.97
2022-11-19T08:05:40.944Z,29.10
2022-11-19T08:10:44.202Z,25.63
2022-11-19T08:15:47.334Z,29.03
2022-11-19T08:20:50.171Z,30.60
2022-11-19T08:25:53.536Z,24.80
2022-11-19T08:30:56.718Z,27.73
2022-11-19T08:35:59.769Z,24.80
2022-11-19T08:41:21.480Z,29.67
2022-11-19T08:46:24.875Z,29.33
2022-11-19T08:51:27.959Z,28.63
2022-11-19T08:56:30.783Z,25.20
2022-11-19T09:01:34.017Z,34.50
2022-11-19T09:06:36.928Z,26.03
2022-11-19T09:11:42.604Z,27.87
2022-11-19T09:16:46.854Z,24.47
2022-11-19T09:21:49.960Z,26.80
2022-11-19T09:26:53.324Z,33.00
2022-11-19T09:31:57.007Z,34.37
2022-11-19T09:37:00.195Z,23.17
2022-11-19T09:42:16.840Z,33.73
2022-11-19T09:47:31.947Z,33.00
2022-11-19T09:52:39.468Z,35.50
2022-11-19T09:57:51.092Z,31.03
2022-11-19T10:02:54.301Z,30.37
2022-11-19T10:08:29.916Z,28.70
2022-11-19T10:13:32.817Z,30.17
2022-11-19T10:18:41.136Z,46.17
2022-11-19T10:24:00.969Z,30.03
2022-11-19T10:29:10.205Z,27.30
2022-11-19T10:34:29.980Z,28.70
2022-11-19T10:39:40.388Z,28.83
2022-11-19T10:44:49.747Z,39.80
2022-11-19T10:49:56.112Z,29.97
2022-11-19T10:55:15.155Z,26.93
2022-11-19T11:00:18.715Z,26.97
2022-11-19T11:05:21.739Z,31.33
2022-11-19T11:10:30.928Z,32.77
2022-11-19T11:15:34.464Z,29.40
2022-11-19T11:20:39.304Z,33.73
2022-11-19T11:25:51.877Z,30.47
2022-11-19T11:30:55.125Z,41.90
2022-11-19T11:36:01.438Z,43.17
2022-11-19T11:47:07.867Z,34.53
2022-11-19T11:52:39.819Z,33.00
2022-11-19T11:57:57.259Z,36.03
2022-11-19T12:03:11.365Z,37.17
2022-11-19T12:08:26.652Z,35.67
2022-11-19T12:13:55.965Z,38.13
2022-11-19T12:19:18.687Z,35.70
2022-11-19T12:24:26.873Z,31.73
2022-11-19T12:29:42.308Z,38.73
2022-11-19T12:34:51.733Z,33.93
2022-11-19T12:39:56.174Z,37.30
2022-11-19T12:45:36.527Z,33.77
2022-11-19T12:50:48.294Z,40.37
2022-11-19T12:56:17.702Z,39.73
2022-11-19T13:01:25.254Z,40.60
2022-11-19T13:06:48.261Z,37.37
2022-11-19T13:11:59.798Z,37.90
2022-11-19T13:17:05.001Z,37.67
2022-11-19T13:22:19.391Z,33.73
2022-11-19T13:27:25.502Z,36.67
2022-11-19T13:32:57.350Z,38.27
2022-11-19T13:38:19.021Z,49.37
2022-11-19T13:43:40.944Z,50.47
2022-11-19T13:49:16.274Z,39.23
2022-11-19T13:54:23.313Z,43.40
2022-11-19T13:59:39.486Z,49.53
2022-11-19T14:04:48.419Z,48.60
2022-11-19T14:10:08.266Z,45.20
2022-11-19T14:15:48.285Z,43.93
2022-11-19T14:21:09.727Z,40.17
2022-11-19T14:26:41.908Z,47.57
2022-11-19T14:32:00.515Z,47.83
2022-11-19T14:37:11.210Z,46.77
2022-11-19T14:42:17.817Z,54.57
2022-11-19T14:47:27.299Z,42.90
2022-11-19T14:52:34.653Z,45.37
2022-11-19T14:57:39.905Z,45.17
2022-11-19T15:02:46.766Z,44.67
2022-11-19T15:07:56.237Z,52.40
2022-11-19T15:13:13.322Z,48.53
2022-11-19T15:18:23.294Z,50.27
2022-11-19T15:23:42.378Z,46.57
2022-11-19T15:29:07.273Z,45.33
2022-11-19T15:34:22.838Z,47.57
2022-11-19T15:39:32.089Z,49.23
2022-11-19T15:44:44.115Z,48.13
2022-11-19T15:49:47.712Z,49.53
2022-11-19T15:54:50.827Z,45.77
2022-11-19T16:00:00.024Z,45.77
2022-11-19T16:05:03.169Z,48.93
2022-11-19T16:10:06.862Z,42.13
2022-11-19T16:15:43.230Z,46.57
2022-11-19T16:20:50.485Z,47.53
2022-11-19T16:25:53.773Z,51.83
2022-11-19T16:31:06.358Z,40.20
2022-11-19T16:36:15.156Z,50.70
2022-11-19T16:41:39.040Z,48.37
2022-11-19T16:46:42.045Z,45.70
2022-11-19T16:51:54.516Z,42.93
2022-11-19T16:56:57.726Z,44.10
2022-11-19T17:02:00.863Z,47.67
2022-11-19T17:07:04.103Z,40.87
2022-11-19T17:12:22.737Z,37.23
2022-11-19T17:17:40.769Z,39.37
2022-11-19T17:22:44.174Z,34.13
2022-11-19T17:27:52.632Z,38.10
2022-11-19T17:32:58.224Z,32.20
2022-11-19T17:38:12.172Z,34.43
2022-11-19T17:43:35.028Z,32.67
2022-11-19T17:48:40.774Z,32.43
2022-11-19T17:53:43.809Z,29.03
2022-11-19T17:58:47.922Z,32.17
2022-11-19T18:03:50.992Z,28.13
2022-11-19T18:08:53.975Z,32.07
2022-11-19T18:13:59.957Z,31.20
2022-11-19T18:19:03.118Z,31.37
2022-11-19T18:24:06.469Z,31.87
2022-11-19T18:29:09.752Z,29.83
2022-11-19T18:34:23.119Z,37.23
2022-11-19T18:39:26.729Z,29.73
2022-11-19T18:44:35.940Z,27.27
2022-11-19T18:49:39.294Z,28.07
2022-11-19T18:54:44.554Z,27.03
2022-11-19T18:59:47.861Z,29.87
2022-11-19T19:04:51.371Z,29.13
2022-11-19T19:09:54.301Z,29.03
2022-11-19T19:14:57.789Z,27.37
2022-11-19T19:20:00.929Z,32.93
2022-11-19T19:25:05.454Z,29.33
2022-11-19T19:30:09.993Z,50.87
2022-11-19T19:35:13.240Z,26.33
2022-11-19T19:40:16.301Z,25.43
2022-11-19T19:45:19.772Z,24.53
2022-11-19T19:50:22.971Z,24.00
2022-11-19T19:55:26.861Z,25.13
2022-11-19T20:00:30.241Z,39.97
2022-11-19T20:05:33.089Z,22.77
2022-11-19T20:10:35.957Z,24.30
2022-11-19T20:15:40.310Z,25.30
2022-11-19T20:20:43.208Z,27.43
2022-11-19T20:25:46.131Z,20.93
2022-11-19T20:30:49.083Z,23.33
2022-11-19T20:35:52.772Z,26.00
2022-11-19T20:41:04.251Z,22.70
2022-11-19T20:46:09.516Z,24.37
2022-11-19T20:51:13.609Z,31.73
2022-11-19T20:56:16.576Z,24.30
2022-11-19T21:01:19.851Z,26.87
2022-11-19T21:06:23.169Z,29.13
2022-11-19T21:11:26.223Z,25.10
2022-11-19T21:16:29.342Z,23.13
2022-11-19T21:21:32.274Z,27.80
2022-11-19T21:26:35.327Z,29.70
2022-11-19T21:31:39.023Z,27.47
2022-11-19T21:36:43.736Z,28.97
2022-11-19T21:41:47.061Z,31.40
2022-11-19T21:46:50.310Z,29.27
2022-11-19T21:51:53.375Z,37.90
2022-11-19T21:56:56.910Z,37.63
2022-11-19T22:02:00.055Z,33.27
2022-11-19T22:07:03.333Z,31.93
2022-11-19T22:12:06.347Z,35.00
2022-11-19T22:17:09.440Z,38.90
2022-11-19T22:22:12.667Z,35.10
2022-11-19T22:27:15.596Z,35.50
2022-11-19T22:32:19.676Z,39.20
2022-11-19T22:37:22.430Z,32.30
2022-11-19T22:42:25.389Z,35.83
2022-11-19T22:47:28.530Z,37.50
2022-11-19T22:52:31.770Z,35.03
2022-11-19T22:57:34.913Z,36.90
2022-11-19T23:02:38.213Z,36.20
2022-11-19T23:07:41.057Z,40.20
2022-11-19T23:13:03.411Z,39.57
2022-11-19T23:18:06.511Z,36.73
2022-11-19T23:23:09.246Z,38.00
2022-11-19T23:28:13.642Z,40.27
2022-11-19T23:33:16.813Z,41.93
2022-11-19T23:38:19.767Z,39.37
2022-11-19T23:43:22.735Z,35.87
2022-11-19T23:48:27.939Z,39.30
2022-11-19T23:53:30.997Z,40.67
2022-11-19T23:58:34.404Z,42.43
